createdAt,value
2022-07-29T00:03:45.977Z,24.00
2022-07-29T00:08:48.308Z,24.00
2022-07-29T00:13:51.118Z,24.10
2022-07-29T00:18:53.536Z,24.10
2022-07-29T00:23:55.876Z,24.00
2022-07-29T00:29:31.880Z,24.00
2022-07-29T00:34:41.332Z,24.00
2022-07-29T00:39:44.071Z,24.00
2022-07-29T00:44:46.329Z,24.00
2022-07-29T00:49:48.884Z,24.00
2022-07-29T00:54:51.154Z,23.90
2022-07-29T00:59:53.440Z,24.00
2022-07-29T01:04:58.107Z,23.90
2022-07-29T01:10:00.853Z,23.90
2022-07-29T01:15:05.234Z,23.90
2022-07-29T01:25:53.160Z,23.90
2022-07-29T01:30:59.797Z,23.80
2022-07-29T01:36:11.853Z,23.80
2022-07-29T01:41:17.665Z,23.70
2022-07-29T01:46:28.481Z,23.70
2022-07-29T01:51:36.921Z,23.70
2022-07-29T01:56:43.537Z,23.70
2022-07-29T02:01:48.088Z,23.60
2022-07-29T02:06:53.904Z,23.60
2022-07-29T02:11:57.962Z,23.60
2022-07-29T02:17:02.212Z,23.60
2022-07-29T02:22:07.175Z,23.60
2022-07-29T02:27:10.615Z,23.50
2022-07-29T02:32:15.982Z,23.50
2022-07-29T02:37:19.534Z,23.40
2022-07-29T02:42:24.755Z,23.40
2022-07-29T02:47:42.744Z,23.40
2022-07-29T02:52:53.892Z,23.30
2022-07-29T02:58:03.858Z,23.30
2022-07-29T03:03:12.172Z,23.30
2022-07-29T03:08:17.261Z,23.30
2022-07-29T03:13:20.527Z,23.40
2022-07-29T03:18:23.212Z,23.30
2022-07-29T03:23:28.868Z,23.20
2022-07-29T03:28:37.524Z,23.30
2022-07-29T03:33:41.992Z,23.40
2022-07-29T03:38:45.916Z,23.50
2022-07-29T03:43:50.728Z,23.50
2022-07-29T03:48:59.606Z,23.60
2022-07-29T03:54:09.486Z,23.60
2022-07-29T03:59:13.976Z,23.60
2022-07-29T04:04:16.938Z,23.70
2022-07-29T04:09:19.710Z,23.70
2022-07-29T04:14:21.991Z,23.70
2022-07-29T04:19:24.244Z,23.80
2022-07-29T04:24:27.038Z,23.80
2022-07-29T04:29:29.295Z,23.70
2022-07-29T04:34:32.046Z,23.80
2022-07-29T04:39:34.374Z,23.90
2022-07-29T04:44:37.172Z,24.00
2022-07-29T04:49:42.023Z,24.10
2022-07-29T04:54:44.252Z,24.10
2022-07-29T04:59:46.554Z,24.20
2022-07-29T05:04:49.432Z,24.20
2022-07-29T05:09:51.748Z,24.40
2022-07-29T05:14:54.333Z,24.40
2022-07-29T05:19:56.599Z,24.50
2022-07-29T05:24:58.943Z,24.40
2022-07-29T05:30:01.212Z,24.40
2022-07-29T05:35:03.653Z,24.50
2022-07-29T05:40:06.688Z,24.70
2022-07-29T05:45:09.479Z,24.80
2022-07-29T05:50:11.833Z,24.90
2022-07-29T05:55:14.129Z,24.70
2022-07-29T06:00:16.799Z,24.90
2022-07-29T06:05:19.076Z,25.30
2022-07-29T06:10:23.941Z,25.40
2022-07-29T06:15:29.337Z,25.70
2022-07-29T06:20:32.956Z,25.90
2022-07-29T06:25:37.719Z,25.90
2022-07-29T06:30:40.916Z,25.90
2022-07-29T06:35:44.737Z,25.80
2022-07-29T06:41:13.564Z,25.70
2022-07-29T06:46:18.546Z,26.00
2022-07-29T06:51:23.239Z,26.30
2022-07-29T06:56:26.284Z,26.40
2022-07-29T07:01:28.602Z,26.50
2022-07-29T07:06:30.903Z,26.60
2022-07-29T07:11:33.514Z,26.90
2022-07-29T07:16:35.904Z,27.20
2022-07-29T07:21:38.199Z,27.30
2022-07-29T07:26:41.113Z,27.70
2022-07-29T07:31:43.509Z,27.70
2022-07-29T07:36:45.780Z,28.00
2022-07-29T07:41:48.979Z,28.40
2022-07-29T07:46:51.271Z,28.90
2022-07-29T07:51:53.784Z,29.00
2022-07-29T07:56:56.173Z,29.00
2022-07-29T08:01:58.585Z,28.80
2022-07-29T08:07:02.123Z,28.70
2022-07-29T08:12:06.659Z,28.70
2022-07-29T08:17:09.019Z,28.80
2022-07-29T08:22:11.372Z,28.70
2022-07-29T08:27:40.817Z,28.60
2022-07-29T08:32:53.039Z,28.70
2022-07-29T08:37:57.856Z,28.70
2022-07-29T08:43:06.433Z,28.80
2022-07-29T08:48:10.154Z,28.70
2022-07-29T08:53:14.898Z,28.70
2022-07-29T08:58:17.887Z,28.40
2022-07-29T09:03:26.445Z,28.30
2022-07-29T09:08:29.322Z,28.20
2022-07-29T09:13:31.602Z,28.40
2022-07-29T09:18:43.691Z,28.40
2022-07-29T09:29:20.595Z,28.00
2022-07-29T09:34:26.299Z,27.80
2022-07-29T09:39:35.319Z,27.60
2022-07-29T09:44:49.320Z,27.50
2022-07-29T09:50:00.235Z,27.50
2022-07-29T09:55:13.825Z,27.50
2022-07-29T10:00:24.019Z,27.40
2022-07-29T10:05:36.600Z,27.40
2022-07-29T10:10:42.688Z,27.50
2022-07-29T10:15:46.888Z,27.50
2022-07-29T10:20:50.232Z,27.60
2022-07-29T10:25:52.503Z,27.50
2022-07-29T10:31:02.818Z,27.50
2022-07-29T10:42:12.558Z,27.70
2022-07-29T10:47:31.570Z,27.40
2022-07-29T10:52:54.717Z,27.20
2022-07-29T11:03:49.624Z,27.30
2022-07-29T11:09:18.233Z,27.40
2022-07-29T11:15:00.267Z,27.60
2022-07-29T11:20:42.822Z,27.50
2022-07-29T11:25:52.336Z,27.50
2022-07-29T11:30:56.210Z,27.60
2022-07-29T11:36:17.062Z,27.70
2022-07-29T11:41:30.248Z,27.80
2022-07-29T11:46:54.030Z,27.90
2022-07-29T11:51:59.219Z,27.60
2022-07-29T11:57:01.940Z,27.50
2022-07-29T12:02:36.410Z,27.60
2022-07-29T12:07:33.848Z,27.50
2022-07-29T12:12:38.367Z,27.40
2022-07-29T12:17:40.666Z,27.20
2022-07-29T12:22:45.244Z,27.50
2022-07-29T12:27:48.943Z,27.60
2022-07-29T12:32:51.638Z,27.60
2022-07-29T12:37:55.843Z,27.60
2022-07-29T12:43:19.248Z,27.50
2022-07-29T12:48:42.259Z,27.50
2022-07-29T12:54:05.638Z,27.40
2022-07-29T12:59:24.209Z,27.50
2022-07-29T13:04:37.591Z,27.40
2022-07-29T13:09:43.275Z,27.60
2022-07-29T13:14:49.315Z,27.70
2022-07-29T13:19:54.807Z,27.70
2022-07-29T13:24:58.751Z,27.70
2022-07-29T13:30:03.105Z,27.70
2022-07-29T13:35:08.516Z,27.60
2022-07-29T13:40:12.017Z,27.40
2022-07-29T13:45:14.443Z,27.30
2022-07-29T13:50:16.952Z,27.00
2022-07-29T13:55:19.320Z,27.00
2022-07-29T14:00:21.752Z,26.90
2022-07-29T14:05:24.060Z,26.80
2022-07-29T14:10:27.182Z,26.70
2022-07-29T14:15:29.416Z,26.60
2022-07-29T14:20:32.527Z,26.60
2022-07-29T14:25:34.795Z,26.70
2022-07-29T14:30:37.098Z,26.60
2022-07-29T14:35:40.279Z,26.60
2022-07-29T14:40:42.541Z,26.60
2022-07-29T14:45:44.862Z,26.60
2022-07-29T14:50:47.151Z,26.60
2022-07-29T14:55:50.193Z,26.50
2022-07-29T15:00:52.560Z,26.50
2022-07-29T15:05:55.570Z,26.60
2022-07-29T15:11:00.321Z,26.50
2022-07-29T15:16:02.743Z,26.40
2022-07-29T15:21:07.597Z,26.50
2022-07-29T15:26:10.186Z,26.50
2022-07-29T15:31:12.559Z,26.40
2022-07-29T15:36:35.780Z,26.40
2022-07-29T15:41:37.624Z,26.50
2022-07-29T15:47:00.445Z,26.50
2022-07-29T15:52:08.040Z,26.70
2022-07-29T15:57:10.493Z,26.60
2022-07-29T16:02:12.785Z,26.50
2022-07-29T16:07:15.780Z,26.50
2022-07-29T16:12:18.122Z,26.30
2022-07-29T16:17:20.546Z,26.20
2022-07-29T16:22:22.820Z,26.20
2022-07-29T16:27:35.355Z,26.00
2022-07-29T16:32:40.677Z,25.90
2022-07-29T16:37:43.157Z,25.80
2022-07-29T16:42:47.207Z,25.80
2022-07-29T16:47:49.961Z,25.70
2022-07-29T16:52:52.557Z,25.60
2022-07-29T16:57:54.892Z,25.40
2022-07-29T17:02:57.273Z,25.40
2022-07-29T17:07:59.674Z,25.40
2022-07-29T17:13:01.955Z,25.40
2022-07-29T17:18:12.684Z,25.30
2022-07-29T17:23:15.323Z,25.20
2022-07-29T17:28:17.885Z,25.10
2022-07-29T17:33:20.160Z,25.00
2022-07-29T17:38:22.596Z,24.90
2022-07-29T17:43:24.859Z,24.90
2022-07-29T17:48:27.160Z,25.00
2022-07-29T17:53:29.583Z,25.00
2022-07-29T17:58:32.542Z,25.10
2022-07-29T18:03:34.792Z,25.30
2022-07-29T18:08:39.934Z,25.20
2022-07-29T18:13:42.397Z,25.10
2022-07-29T18:18:45.827Z,25.10
2022-07-29T18:23:50.785Z,25.00
2022-07-29T18:28:53.087Z,25.00
2022-07-29T18:33:59.857Z,25.00
2022-07-29T18:39:02.488Z,25.10
2022-07-29T18:44:05.134Z,25.30
2022-07-29T18:49:08.007Z,25.20
2022-07-29T18:54:10.855Z,25.30
2022-07-29T18:59:17.026Z,25.50
2022-07-29T19:04:19.493Z,25.40
2022-07-29T19:09:21.761Z,25.40
2022-07-29T19:14:24.045Z,25.40
2022-07-29T19:19:26.305Z,25.30
2022-07-29T19:24:28.948Z,25.30
2022-07-29T19:29:32.435Z,25.30
2022-07-29T19:34:34.761Z,25.20
2022-07-29T19:39:37.037Z,25.20
2022-07-29T19:44:39.336Z,25.30
2022-07-29T19:49:41.626Z,25.40
2022-07-29T19:54:44.345Z,25.40
2022-07-29T19:59:46.619Z,25.40
2022-07-29T20:04:48.917Z,25.20
2022-07-29T20:09:54.821Z,25.20
2022-07-29T20:14:57.838Z,25.20
2022-07-29T20:20:01.137Z,25.20
2022-07-29T20:25:04.262Z,25.20
2022-07-29T20:30:07.370Z,25.20
2022-07-29T20:35:12.102Z,25.10
2022-07-29T20:40:14.483Z,24.90
2022-07-29T20:45:16.859Z,24.80
2022-07-29T20:50:23.834Z,25.00
2022-07-29T20:55:26.744Z,24.90
2022-07-29T21:00:29.040Z,24.90
2022-07-29T21:05:31.746Z,25.00
2022-07-29T21:10:34.057Z,25.00
2022-07-29T21:15:36.711Z,25.10
2022-07-29T21:20:39.019Z,25.10
2022-07-29T21:25:41.267Z,25.00
2022-07-29T21:30:43.639Z,24.90
2022-07-29T21:36:15.109Z,24.80
2022-07-29T21:41:08.873Z,24.80
2022-07-29T21:46:12.034Z,24.90
2022-07-29T21:51:14.540Z,25.00
2022-07-29T21:56:18.003Z,25.10
2022-07-29T22:01:20.401Z,25.10
2022-07-29T22:06:22.679Z,25.10
2022-07-29T22:11:24.936Z,25.10
2022-07-29T22:16:27.854Z,25.10
2022-07-29T22:21:30.899Z,25.00
2022-07-29T22:26:33.396Z,25.00
2022-07-29T22:31:35.687Z,24.80
2022-07-29T22:36:38.435Z,24.70
2022-07-29T22:41:40.938Z,24.70
2022-07-29T22:46:43.448Z,24.80
2022-07-29T22:51:45.928Z,24.70
2022-07-29T22:56:48.221Z,24.60
2022-07-29T23:01:50.761Z,24.60
2022-07-29T23:06:53.078Z,24.70
2022-07-29T23:11:55.363Z,24.90
2022-07-29T23:16:57.917Z,24.90
2022-07-29T23:22:00.676Z,25.00
2022-07-29T23:27:03.671Z,24.90
2022-07-29T23:32:06.442Z,24.90
2022-07-29T23:37:08.758Z,25.00
2022-07-29T23:42:12.422Z,25.00
2022-07-29T23:47:14.831Z,25.00
2022-07-29T23:52:17.870Z,25.00
2022-07-29T23:57:23.975Z,25.00
